Time;durP1;ratioP1;P1;durP2;ratioP2;P2;SDS_P1;SDS_P2;PMS_P1;PMS_P2;Temp;Humidity;BMP_temperature;BMP_pressure;BME280_temperature;BME280_humidity;BME280_pressure;Samples;Min_cycle;Max_cycle;Signal;HPM_P1;HPM_P2
2024/01/18 00:00:35;;;;;;;22.95;12.48;;;-0.20;99.90;;;;;;5025963;28;20041;-61
2024/01/18 00:03:01;;;;;;;25.65;13.07;;;-0.20;99.90;;;;;;5012467;28;20486;-61
2024/01/18 00:05:27;;;;;;;21.20;10.75;;;-0.20;99.90;;;;;;5025663;28;20064;-61
2024/01/18 00:07:53;;;;;;;25.50;12.40;;;-0.30;99.90;;;;;;5025786;28;20044;-60
2024/01/18 00:10:26;;;;;;;23.40;11.77;;;-0.20;99.90;;;;;;5027675;28;20025;-61
2024/01/18 00:12:52;;;;;;;23.40;11.57;;;-0.20;99.90;;;;;;5020028;28;20473;-61
2024/01/18 00:15:17;;;;;;;25.70;11.75;;;-0.20;99.90;;;;;;5025739;28;20025;-61
2024/01/18 00:17:42;;;;;;;21.40;10.88;;;-0.20;99.90;;;;;;5016879;28;20038;-61
2024/01/18 00:20:09;;;;;;;20.08;11.00;;;-0.30;99.90;;;;;;5017581;28;20038;-61
2024/01/18 00:22:35;;;;;;;23.73;12.90;;;-0.30;99.90;;;;;;5025761;28;20059;-61
2024/01/18 00:25:00;;;;;;;22.23;11.38;;;-0.30;99.90;;;;;;5025518;28;20069;-61
2024/01/18 00:27:26;;;;;;;22.05;10.73;;;-0.30;99.90;;;;;;5027344;28;20083;-61
2024/01/18 00:29:51;;;;;;;19.52;10.80;;;-0.30;99.90;;;;;;5025762;28;20080;-62
2024/01/18 00:32:17;;;;;;;22.38;10.63;;;-0.30;99.90;;;;;;5023019;28;20471;-61
2024/01/18 00:34:42;;;;;;;19.08;10.13;;;-0.30;99.90;;;;;;5022296;28;20032;-61
2024/01/18 00:37:08;;;;;;;19.80;10.20;;;-0.30;99.90;;;;;;5022455;28;20026;-61
2024/01/18 00:39:33;;;;;;;23.48;11.07;;;-0.30;99.90;;;;;;5023690;28;20485;-61
2024/01/18 00:42:00;;;;;;;19.02;9.98;;;-0.30;99.90;;;;;;5020399;28;20040;-61
2024/01/18 00:44:25;;;;;;;26.23;11.52;;;-0.30;99.90;;;;;;5022289;28;20696;-61
2024/01/18 00:46:51;;;;;;;19.75;9.90;;;-0.30;99.90;;;;;;5022250;28;20033;-61
2024/01/18 00:49:17;;;;;;;23.08;11.57;;;-0.30;99.90;;;;;;5022432;28;20443;-61
2024/01/18 00:51:43;;;;;;;19.00;10.13;;;-0.30;99.90;;;;;;5022149;28;20034;-61
2024/01/18 00:54:08;;;;;;;17.00;9.02;;;-0.30;99.90;;;;;;5023555;28;20026;-61
2024/01/18 00:56:34;;;;;;;20.35;10.20;;;-0.30;99.90;;;;;;5019882;28;20037;-61
2024/01/18 00:58:59;;;;;;;23.00;11.88;;;-0.30;99.90;;;;;;5021906;28;20064;-61
2024/01/18 01:01:24;;;;;;;20.63;10.70;;;-0.30;99.90;;;;;;5016139;28;20310;-61
2024/01/18 01:03:50;;;;;;;15.82;9.88;;;-0.30;99.90;;;;;;5017708;28;20013;-61
2024/01/18 01:06:15;;;;;;;20.85;11.38;;;-0.30;99.90;;;;;;5021800;28;20447;-61
2024/01/18 01:08:41;;;;;;;19.65;11.00;;;-0.30;99.90;;;;;;5013509;28;20018;-60
2024/01/18 01:11:09;;;;;;;22.27;10.43;;;-0.30;99.90;;;;;;5022302;28;20022;-61
2024/01/18 01:13:35;;;;;;;22.33;11.07;;;-0.40;99.90;;;;;;5023416;28;20025;-61
2024/01/18 01:16:00;;;;;;;25.05;11.65;;;-0.30;99.90;;;;;;5022116;28;20034;-61
2024/01/18 01:18:26;;;;;;;20.38;11.15;;;-0.30;99.90;;;;;;5017760;28;20030;-61
2024/01/18 01:20:51;;;;;;;21.65;10.57;;;-0.40;99.90;;;;;;5021503;28;20065;-61
2024/01/18 01:23:17;;;;;;;20.67;10.68;;;-0.40;99.90;;;;;;5021672;28;20124;-61
2024/01/18 01:25:42;;;;;;;21.23;10.80;;;-0.40;99.90;;;;;;5023425;28;20429;-61
2024/01/18 01:28:08;;;;;;;21.08;11.52;;;-0.40;99.90;;;;;;5021547;28;20281;-61
2024/01/18 01:30:33;;;;;;;18.85;10.98;;;-0.40;99.90;;;;;;5021494;28;20033;-61
2024/01/18 01:32:59;;;;;;;20.77;12.18;;;-0.40;99.90;;;;;;5017329;28;20029;-61
2024/01/18 01:35:24;;;;;;;26.55;12.95;;;-0.40;99.90;;;;;;5021445;28;20026;-61
2024/01/18 01:37:50;;;;;;;26.85;12.57;;;-0.50;99.90;;;;;;5020335;28;20032;-60
2024/01/18 01:40:16;;;;;;;21.48;12.20;;;-0.50;99.90;;;;;;5023183;28;20030;-61
2024/01/18 01:42:41;;;;;;;20.33;10.93;;;-0.60;99.90;;;;;;5017864;28;20445;-62
2024/01/18 01:45:07;;;;;;;22.60;11.57;;;-0.60;99.90;;;;;;5015902;28;20570;-61
2024/01/18 01:47:33;;;;;;;23.02;11.52;;;-0.60;99.90;;;;;;5012837;28;20040;-61
2024/01/18 01:50:00;;;;;;;19.75;10.98;;;-0.60;99.90;;;;;;5012497;28;20038;-60
2024/01/18 01:52:28;;;;;;;19.80;11.35;;;-0.60;99.90;;;;;;5021292;28;20061;-61
2024/01/18 01:54:54;;;;;;;21.02;11.00;;;-0.60;99.90;;;;;;5021319;28;20067;-61
2024/01/18 01:57:20;;;;;;;21.20;11.63;;;-0.60;99.90;;;;;;5011172;28;20018;-61
2024/01/18 01:59:47;;;;;;;18.13;10.80;;;-0.70;99.90;;;;;;5020620;28;20044;-61
2024/01/18 02:02:13;;;;;;;22.33;11.13;;;-0.70;99.90;;;;;;5017734;28;20018;-61
2024/01/18 02:04:39;;;;;;;20.77;11.40;;;-0.60;99.90;;;;;;5020708;28;20064;-60
2024/01/18 02:07:06;;;;;;;21.00;11.10;;;-0.70;99.90;;;;;;5020889;28;20092;-61
2024/01/18 02:09:32;;;;;;;20.35;10.98;;;-0.60;99.90;;;;;;5020661;28;20036;-60
2024/01/18 02:11:59;;;;;;;19.88;10.35;;;-0.60;99.90;;;;;;5020764;28;20040;-60
2024/01/18 02:14:24;;;;;;;14.00;8.65;;;-0.60;99.90;;;;;;5020826;28;20773;-60
2024/01/18 02:16:50;;;;;;;21.73;11.68;;;-0.60;99.90;;;;;;5022355;28;20057;-61
2024/01/18 02:19:16;;;;;;;21.38;11.10;;;-0.60;99.90;;;;;;5020672;28;20079;-61
2024/01/18 02:21:41;;;;;;;23.70;12.50;;;-0.60;99.90;;;;;;5020662;28;20119;-61
2024/01/18 02:24:16;;;;;;;25.50;12.15;;;-0.60;99.90;;;;;;5020465;28;20022;-61
2024/01/18 02:26:42;;;;;;;20.75;10.90;;;-0.60;99.90;;;;;;5018981;28;20513;-61
2024/01/18 02:29:07;;;;;;;25.38;12.07;;;-0.60;99.90;;;;;;5012192;28;20034;-61
2024/01/18 02:31:33;;;;;;;23.33;10.73;;;-0.60;99.90;;;;;;5020521;28;20147;-60
2024/01/18 02:33:58;;;;;;;16.17;10.35;;;-0.60;99.90;;;;;;5020233;28;20444;-62
2024/01/18 02:36:24;;;;;;;17.63;9.45;;;-0.60;99.90;;;;;;5020395;28;20037;-61
2024/01/18 02:38:51;;;;;;;20.17;10.75;;;-0.60;99.90;;;;;;5021969;28;20109;-67
2024/01/18 02:41:17;;;;;;;21.95;11.23;;;-0.60;99.90;;;;;;5019892;28;20036;-67
2024/01/18 02:43:43;;;;;;;22.20;11.00;;;-0.60;99.90;;;;;;5019823;28;20272;-66
2024/01/18 02:46:09;;;;;;;22.40;10.07;;;-0.60;99.90;;;;;;5018486;28;20045;-67
2024/01/18 02:48:35;;;;;;;18.00;9.65;;;-0.60;99.90;;;;;;5020097;28;20030;-66
2024/01/18 02:51:00;;;;;;;25.42;11.73;;;-0.60;99.90;;;;;;5019531;28;20505;-66
2024/01/18 02:53:26;;;;;;;23.00;10.73;;;-0.60;99.90;;;;;;5020304;28;20049;-67
2024/01/18 02:55:51;;;;;;;18.20;9.38;;;-0.60;99.90;;;;;;5018653;28;20112;-67
2024/01/18 02:58:17;;;;;;;26.52;11.35;;;-0.60;99.90;;;;;;5019288;28;20041;-67
2024/01/18 03:00:42;;;;;;;22.33;9.90;;;-0.60;99.90;;;;;;5019456;28;20026;-67
2024/01/18 03:03:08;;;;;;;24.23;11.90;;;-0.60;99.90;;;;;;5007425;28;20057;-66
2024/01/18 03:05:34;;;;;;;24.27;10.50;;;-0.60;99.90;;;;;;5012706;28;20041;-67
2024/01/18 03:08:00;;;;;;;18.80;9.75;;;-0.60;99.90;;;;;;5013503;28;20036;-66
2024/01/18 03:10:25;;;;;;;19.10;9.95;;;-0.60;99.90;;;;;;5015410;28;20097;-67
2024/01/18 03:12:51;;;;;;;18.48;9.43;;;-0.60;99.90;;;;;;5018221;28;20060;-66
2024/01/18 03:15:16;;;;;;;22.10;11.32;;;-0.70;99.90;;;;;;5019976;28;20414;-66
2024/01/18 03:17:42;;;;;;;15.98;8.85;;;-0.70;99.90;;;;;;5019345;28;20076;-66
2024/01/18 03:20:08;;;;;;;19.02;10.10;;;-0.70;99.90;;;;;;5019185;28;20450;-66
2024/01/18 03:22:37;;;;;;;15.88;10.15;;;-0.70;99.90;;;;;;5020831;28;20033;-68
2024/01/18 03:25:02;;;;;;;18.83;10.93;;;-0.70;99.90;;;;;;5016315;28;20450;-67
2024/01/18 03:27:28;;;;;;;16.45;9.52;;;-0.70;99.90;;;;;;5019403;28;20056;-66
2024/01/18 03:29:54;;;;;;;22.10;10.63;;;-0.70;99.90;;;;;;5019174;28;20048;-66
2024/01/18 03:32:19;;;;;;;19.30;10.60;;;-0.70;99.90;;;;;;5019557;28;20021;-66
2024/01/18 03:34:45;;;;;;;21.45;11.07;;;-0.80;99.90;;;;;;5019203;28;20083;-67
2024/01/18 03:37:10;;;;;;;20.30;10.45;;;-0.80;99.90;;;;;;5019376;28;20025;-67
2024/01/18 03:39:36;;;;;;;16.45;8.80;;;-0.80;99.90;;;;;;5019333;28;20044;-66
2024/01/18 03:42:02;;;;;;;22.40;11.18;;;-0.80;99.90;;;;;;5021199;28;20474;-67
2024/01/18 03:44:27;;;;;;;17.40;9.50;;;-0.80;99.90;;;;;;5011169;28;20037;-67
2024/01/18 03:46:53;;;;;;;23.23;10.43;;;-0.90;99.90;;;;;;5014964;28;20041;-67
2024/01/18 03:49:20;;;;;;;20.23;9.80;;;-0.90;99.90;;;;;;5019218;28;20026;-66
2024/01/18 03:51:45;;;;;;;18.75;9.45;;;-0.90;99.90;;;;;;5011083;28;20084;-66
2024/01/18 03:54:11;;;;;;;18.90;10.40;;;-0.90;99.90;;;;;;5019095;28;20029;-66
2024/01/18 03:56:36;;;;;;;18.00;10.13;;;-0.90;99.90;;;;;;5020971;28;20397;-66
2024/01/18 03:59:01;;;;;;;16.75;9.95;;;-0.90;99.90;;;;;;5019272;28;20096;-67
2024/01/18 04:01:33;;;;;;;24.08;12.38;;;-0.90;99.90;;;;;;5012432;28;20038;-67
2024/01/18 04:03:59;;;;;;;24.05;11.82;;;-0.90;99.90;;;;;;5013721;28;20034;-67
2024/01/18 04:06:25;;;;;;;18.88;10.38;;;-0.90;99.90;;;;;;5015651;28;20069;-67
2024/01/18 04:08:50;;;;;;;24.42;10.52;;;-0.90;99.90;;;;;;5022720;28;20657;-67
2024/01/18 04:11:16;;;;;;;20.20;10.23;;;-0.90;99.90;;;;;;5023006;28;20033;-66
2024/01/18 04:13:42;;;;;;;24.80;11.38;;;-0.90;99.90;;;;;;5018338;28;20024;-67
2024/01/18 04:16:08;;;;;;;23.58;10.50;;;-1.00;99.90;;;;;;5015577;28;20060;-67
2024/01/18 04:18:34;;;;;;;19.48;10.18;;;-1.00;99.90;;;;;;5015462;28;20025;-66
2024/01/18 04:20:59;;;;;;;21.45;10.48;;;-1.00;99.90;;;;;;5016959;28;20292;-67
2024/01/18 04:23:25;;;;;;;20.85;11.68;;;-1.00;99.90;;;;;;5015031;28;20506;-66
2024/01/18 04:25:51;;;;;;;22.38;10.93;;;-1.00;99.90;;;;;;5018287;28;20493;-66
2024/01/18 04:28:21;;;;;;;18.80;9.95;;;-1.00;99.90;;;;;;5016953;28;20454;-67
2024/01/18 04:30:47;;;;;;;21.98;9.88;;;-1.10;99.90;;;;;;5020565;28;20044;-67
2024/01/18 04:33:12;;;;;;;27.08;10.57;;;-1.00;99.90;;;;;;5021358;28;20021;-68
2024/01/18 04:35:38;;;;;;;20.67;10.32;;;-1.10;99.90;;;;;;5022761;28;20053;-67
2024/01/18 04:38:04;;;;;;;28.42;11.57;;;-1.10;99.90;;;;;;5016275;28;20028;-67
2024/01/18 04:40:29;;;;;;;25.45;11.98;;;-1.00;99.90;;;;;;5014296;28;20029;-66
2024/01/18 04:42:55;;;;;;;17.70;8.85;;;-1.10;99.90;;;;;;5022354;28;20033;-66
2024/01/18 04:45:20;;;;;;;25.10;11.38;;;-1.00;99.90;;;;;;5021705;28;20033;-66
2024/01/18 04:47:46;;;;;;;22.88;11.70;;;-1.00;99.90;;;;;;5012797;28;20029;-66
2024/01/18 04:50:12;;;;;;;20.88;10.00;;;-1.10;99.90;;;;;;5021889;28;20026;-69
2024/01/18 04:52:37;;;;;;;17.70;9.35;;;-1.10;99.90;;;;;;5022108;28;20029;-68
2024/01/18 04:55:04;;;;;;;17.73;9.30;;;-1.10;99.90;;;;;;5020848;28;20021;-68
2024/01/18 04:57:37;;;;;;;25.58;11.82;;;-1.10;99.90;;;;;;5022196;28;20393;-68
2024/01/18 05:00:09;;;;;;;22.65;11.00;;;-1.10;99.90;;;;;;5017137;28;20493;-69
2024/01/18 05:02:35;;;;;;;24.20;11.02;;;-1.10;99.90;;;;;;5013090;28;20029;-68
2024/01/18 05:05:01;;;;;;;21.80;10.88;;;-1.10;99.90;;;;;;5010230;28;20038;-69
2024/01/18 05:07:27;;;;;;;21.48;9.68;;;-1.20;99.90;;;;;;5016861;28;20029;-69
2024/01/18 05:09:52;;;;;;;17.33;9.43;;;-1.20;99.90;;;;;;5016253;28;20146;-69
2024/01/18 05:12:18;;;;;;;22.63;11.00;;;-1.20;99.90;;;;;;5013998;28;20034;-66
2024/01/18 05:14:43;;;;;;;19.25;9.73;;;-1.20;99.90;;;;;;5015294;28;20025;-66
2024/01/18 05:17:11;;;;;;;21.98;10.70;;;-1.20;99.90;;;;;;5010331;28;20026;-65
2024/01/18 05:19:37;;;;;;;22.65;10.65;;;-1.20;99.90;;;;;;5014967;28;20021;-69
2024/01/18 05:22:03;;;;;;;23.48;10.70;;;-1.20;99.90;;;;;;5018123;28;20081;-69
2024/01/18 05:24:30;;;;;;;18.35;9.85;;;-1.20;99.90;;;;;;5010556;28;20034;-68
2024/01/18 05:26:56;;;;;;;18.42;9.85;;;-1.20;99.90;;;;;;5013734;28;20042;-68
2024/01/18 05:29:21;;;;;;;24.15;11.90;;;-1.20;99.90;;;;;;5015221;28;20028;-69
2024/01/18 05:31:46;;;;;;;22.88;11.55;;;-1.30;99.90;;;;;;5013646;28;20034;-70
2024/01/18 05:34:13;;;;;;;18.95;9.73;;;-1.30;99.90;;;;;;5010948;28;20137;-69
2024/01/18 05:36:38;;;;;;;19.92;9.15;;;-1.20;99.90;;;;;;5013692;28;20112;-69
2024/01/18 05:39:04;;;;;;;15.73;8.80;;;-1.20;99.90;;;;;;5017788;28;20108;-69
2024/01/18 05:41:29;;;;;;;20.52;9.57;;;-1.20;99.90;;;;;;5017576;28;20268;-68
2024/01/18 05:43:55;;;;;;;21.63;11.25;;;-1.20;99.90;;;;;;5012552;28;20416;-69
2024/01/18 05:46:22;;;;;;;24.15;11.35;;;-1.20;99.90;;;;;;5018154;28;20029;-69
2024/01/18 05:48:48;;;;;;;26.73;11.75;;;-1.30;99.90;;;;;;5013596;28;20112;-69
2024/01/18 05:51:14;;;;;;;23.00;10.98;;;-1.30;99.90;;;;;;5012262;28;20030;-69
2024/01/18 05:53:39;;;;;;;18.15;9.82;;;-1.30;99.90;;;;;;5016479;28;20022;-68
2024/01/18 05:56:05;;;;;;;20.00;10.32;;;-1.30;99.90;;;;;;5015588;28;20033;-69
2024/01/18 05:58:31;;;;;;;22.88;12.02;;;-1.30;99.90;;;;;;5015081;28;20032;-69
2024/01/18 06:00:57;;;;;;;24.58;11.38;;;-1.30;99.90;;;;;;5017008;28;20109;-65
2024/01/18 06:03:22;;;;;;;22.15;9.85;;;-1.30;99.90;;;;;;5012802;28;20104;-69
2024/01/18 06:05:48;;;;;;;17.13;10.30;;;-1.20;99.90;;;;;;5013900;28;20068;-69
2024/01/18 06:08:15;;;;;;;21.88;10.90;;;-1.20;99.90;;;;;;5012282;28;20055;-69
2024/01/18 06:10:41;;;;;;;21.40;10.18;;;-1.20;99.90;;;;;;5021221;28;20422;-69
2024/01/18 06:13:06;;;;;;;23.05;10.07;;;-1.20;99.90;;;;;;5003959;28;20036;-69
2024/01/18 06:15:32;;;;;;;22.77;11.07;;;-1.20;99.90;;;;;;5013886;28;20034;-69
2024/01/18 06:18:03;;;;;;;17.88;9.75;;;-1.10;99.90;;;;;;5008049;28;20026;-69
2024/01/18 06:20:29;;;;;;;23.42;11.15;;;-1.10;99.90;;;;;;5011772;28;20040;-69
2024/01/18 06:22:54;;;;;;;26.50;11.65;;;-1.10;99.90;;;;;;5008707;28;20033;-69
2024/01/18 06:25:20;;;;;;;29.33;11.77;;;-1.10;99.90;;;;;;5009285;28;20048;-69
2024/01/18 06:27:45;;;;;;;22.00;10.30;;;-1.10;99.90;;;;;;5012500;28;20398;-70
2024/01/18 06:30:12;;;;;;;20.13;10.60;;;-1.10;99.90;;;;;;5017171;28;20029;-67
2024/01/18 06:32:37;;;;;;;20.80;11.18;;;-1.10;99.90;;;;;;5008368;28;20026;-66
2024/01/18 06:35:04;;;;;;;22.50;11.55;;;-1.00;99.90;;;;;;5007654;28;20040;-67
2024/01/18 06:37:29;;;;;;;23.30;10.82;;;-1.00;99.90;;;;;;5006223;28;20057;-65
2024/01/18 06:39:55;;;;;;;22.50;11.68;;;-1.00;99.90;;;;;;5010877;28;20037;-66
2024/01/18 06:42:20;;;;;;;17.73;10.30;;;-1.00;99.90;;;;;;5012873;28;20030;-67
2024/01/18 06:44:46;;;;;;;22.10;11.13;;;-1.00;99.90;;;;;;5015975;28;20034;-67
2024/01/18 06:47:11;;;;;;;23.00;11.05;;;-1.00;99.90;;;;;;5004622;28;20442;-67
2024/01/18 06:49:37;;;;;;;27.85;11.85;;;-1.00;99.90;;;;;;5009754;28;20037;-68
2024/01/18 06:52:03;;;;;;;24.52;10.45;;;-1.00;99.90;;;;;;5007675;28;20040;-69
2024/01/18 06:54:28;;;;;;;19.13;10.70;;;-1.00;99.90;;;;;;5008397;28;20026;-67
2024/01/18 06:56:54;;;;;;;26.73;12.05;;;-1.10;99.90;;;;;;5008728;28;20021;-66
2024/01/18 06:59:19;;;;;;;24.05;11.82;;;-1.00;99.90;;;;;;5014159;28;20557;-68
2024/01/18 07:01:45;;;;;;;27.13;12.15;;;-1.10;99.90;;;;;;5012995;28;20036;-67
2024/01/18 07:04:10;;;;;;;26.17;12.25;;;-1.10;99.90;;;;;;5009683;28;20498;-68
2024/01/18 07:06:36;;;;;;;25.17;12.80;;;-1.00;99.90;;;;;;5009698;28;20096;-68
2024/01/18 07:09:01;;;;;;;24.92;10.88;;;-1.00;99.90;;;;;;5011974;28;20033;-67
2024/01/18 07:11:27;;;;;;;24.95;11.73;;;-1.00;99.90;;;;;;5019454;28;20456;-68
2024/01/18 07:13:52;;;;;;;25.25;11.60;;;-1.10;99.90;;;;;;5013999;28;20037;-70
2024/01/18 07:16:18;;;;;;;21.98;11.02;;;-1.10;99.90;;;;;;5007161;28;20080;-69
2024/01/18 07:18:43;;;;;;;19.50;10.15;;;-1.10;99.90;;;;;;5008653;28;20029;-69
2024/01/18 07:21:09;;;;;;;29.33;13.27;;;-1.20;99.90;;;;;;5008926;28;20124;-68
2024/01/18 07:23:34;;;;;;;23.88;10.77;;;-1.20;99.90;;;;;;5007458;28;20671;-68
2024/01/18 07:25:59;;;;;;;22.55;11.82;;;-1.30;99.90;;;;;;5011995;28;20045;-68
2024/01/18 07:28:25;;;;;;;20.90;11.23;;;-1.30;99.90;;;;;;5010208;28;20026;-68
2024/01/18 07:30:51;;;;;;;26.08;12.85;;;-1.40;99.90;;;;;;5012061;28;20083;-67
2024/01/18 07:33:16;;;;;;;24.70;12.48;;;-1.40;99.90;;;;;;5008602;28;20029;-68
2024/01/18 07:35:42;;;;;;;29.45;14.35;;;-1.40;99.90;;;;;;5009506;28;20045;-68
2024/01/18 07:38:07;;;;;;;22.70;11.85;;;-1.50;99.90;;;;;;5009865;28;20021;-68
2024/01/18 07:40:33;;;;;;;24.48;12.55;;;-1.40;99.90;;;;;;5011725;28;20025;-68
2024/01/18 07:42:59;;;;;;;23.30;12.27;;;-1.40;99.90;;;;;;5015417;28;20033;-71
2024/01/18 07:45:25;;;;;;;29.08;13.85;;;-1.40;99.90;;;;;;5016221;28;20527;-68
2024/01/18 07:47:50;;;;;;;35.10;14.45;;;-1.30;99.90;;;;;;5014166;28;20037;-67
2024/01/18 07:50:16;;;;;;;27.23;13.60;;;-1.30;99.90;;;;;;5012327;28;20518;-67
2024/01/18 07:52:41;;;;;;;26.20;12.80;;;-1.30;99.90;;;;;;5017261;28;20052;-67
2024/01/18 07:55:07;;;;;;;29.88;14.30;;;-1.30;99.90;;;;;;5019266;28;20021;-69
2024/01/18 07:57:33;;;;;;;25.92;12.63;;;-1.30;99.90;;;;;;5014354;28;20029;-69
2024/01/18 07:59:59;;;;;;;33.60;15.15;;;-1.20;99.90;;;;;;5010140;28;20061;-68
2024/01/18 08:02:25;;;;;;;27.13;15.00;;;-1.20;99.90;;;;;;5007693;28;20477;-68
2024/01/18 08:04:50;;;;;;;26.13;13.40;;;-1.20;99.90;;;;;;5020963;28;20029;-68
2024/01/18 08:07:16;;;;;;;24.95;13.30;;;-1.20;99.90;;;;;;5016187;28;20041;-68
2024/01/18 08:09:41;;;;;;;31.08;16.25;;;-1.20;99.90;;;;;;5016412;28;20040;-68
2024/01/18 08:12:07;;;;;;;28.45;14.52;;;-1.10;99.90;;;;;;5015728;28;20440;-68
2024/01/18 08:14:33;;;;;;;36.28;16.70;;;-1.10;99.90;;;;;;5018889;28;20485;-67
2024/01/18 08:16:59;;;;;;;31.50;16.08;;;-1.10;99.90;;;;;;5014162;28;20061;-70
2024/01/18 08:19:24;;;;;;;35.05;17.23;;;-1.10;99.90;;;;;;5019345;28;20036;-63
2024/01/18 08:21:50;;;;;;;30.88;15.60;;;-1.00;99.90;;;;;;5020285;28;20393;-67
2024/01/18 08:24:15;;;;;;;32.05;15.40;;;-1.00;99.90;;;;;;5020965;28;20108;-67
2024/01/18 08:26:41;;;;;;;31.85;15.98;;;-0.90;99.90;;;;;;5011983;28;20022;-67
2024/01/18 08:29:07;;;;;;;32.05;15.93;;;-0.80;99.90;;;;;;5015967;28;20508;-68
2024/01/18 08:31:32;;;;;;;24.08;12.48;;;-0.70;99.90;;;;;;5015272;28;20486;-67
2024/01/18 08:33:58;;;;;;;30.00;14.07;;;-0.70;99.90;;;;;;5015054;28;20029;-68
2024/01/18 08:36:23;;;;;;;28.83;14.43;;;-0.60;99.90;;;;;;5016812;28;20045;-67
2024/01/18 08:38:50;;;;;;;36.85;16.17;;;-0.50;99.90;;;;;;5019078;28;20034;-69
2024/01/18 08:41:16;;;;;;;25.77;12.68;;;-0.50;99.90;;;;;;5015333;28;20041;-67
2024/01/18 08:43:41;;;;;;;37.55;17.15;;;-0.40;99.90;;;;;;5016461;28;20131;-61
2024/01/18 08:46:07;;;;;;;28.00;15.45;;;-0.20;99.90;;;;;;5020851;28;20156;-61
2024/01/18 08:48:36;;;;;;;35.35;16.38;;;-0.10;99.90;;;;;;5013793;28;20060;-61
2024/01/18 08:51:02;;;;;;;30.83;15.80;;;0.00;99.90;;;;;;5014795;28;20034;-61
2024/01/18 08:53:28;;;;;;;32.20;16.30;;;0.10;99.90;;;;;;5017049;28;20025;-61
2024/01/18 08:55:53;;;;;;;35.22;17.27;;;0.10;99.90;;;;;;5017674;28;20032;-62
2024/01/18 08:58:19;;;;;;;35.85;16.52;;;0.20;99.90;;;;;;5019056;28;20119;-61
2024/01/18 09:00:45;;;;;;;30.05;16.42;;;0.30;99.90;;;;;;5016403;28;20533;-61
2024/01/18 09:03:10;;;;;;;31.38;16.42;;;0.40;99.90;;;;;;5005718;28;20045;-61
2024/01/18 09:05:35;;;;;;;26.48;14.25;;;0.40;99.90;;;;;;5016844;28;20401;-61
2024/01/18 09:08:01;;;;;;;33.13;15.57;;;0.50;99.90;;;;;;5014682;28;20026;-61
2024/01/18 09:10:27;;;;;;;30.70;15.80;;;0.60;99.90;;;;;;5014215;28;20441;-61
2024/01/18 09:12:52;;;;;;;29.17;16.15;;;0.70;99.90;;;;;;5012043;28;20529;-61
2024/01/18 09:15:18;;;;;;;29.85;16.05;;;0.70;99.90;;;;;;5011300;28;20029;-61
2024/01/18 09:17:43;;;;;;;28.38;15.27;;;0.80;99.90;;;;;;5009483;28;20120;-61
2024/01/18 09:20:09;;;;;;;35.53;17.35;;;0.90;99.90;;;;;;5014876;28;20218;-61
2024/01/18 09:22:35;;;;;;;29.63;16.67;;;1.00;99.90;;;;;;5015835;28;20026;-61
2024/01/18 09:25:01;;;;;;;28.02;13.95;;;1.10;99.60;;;;;;5010258;28;20050;-62
2024/01/18 09:27:27;;;;;;;28.73;15.30;;;1.20;99.80;;;;;;5011324;28;20026;-61
2024/01/18 09:29:52;;;;;;;32.15;16.02;;;1.30;99.70;;;;;;5011419;28;20033;-61
2024/01/18 09:32:18;;;;;;;29.52;15.32;;;1.40;99.40;;;;;;5014011;28;20580;-61
2024/01/18 09:34:43;;;;;;;32.63;17.75;;;1.40;99.30;;;;;;5020901;28;20026;-61
2024/01/18 09:37:09;;;;;;;33.63;17.40;;;1.40;99.20;;;;;;5013611;28;20021;-62
2024/01/18 09:39:34;;;;;;;32.13;16.58;;;1.40;99.00;;;;;;5012582;28;20032;-61
2024/01/18 09:42:03;;;;;;;31.63;16.42;;;1.50;98.50;;;;;;5015071;28;20045;-61
2024/01/18 09:44:32;;;;;;;31.63;16.17;;;1.50;98.40;;;;;;5014348;28;20116;-61
2024/01/18 09:46:59;;;;;;;29.88;15.52;;;1.50;98.70;;;;;;5013759;28;20044;-61
2024/01/18 09:49:27;;;;;;;30.65;15.63;;;1.50;98.10;;;;;;5020006;28;20026;-62
2024/01/18 09:51:55;;;;;;;29.88;15.88;;;1.50;98.20;;;;;;5019883;28;20025;-61
2024/01/18 09:54:21;;;;;;;29.33;15.75;;;1.40;97.80;;;;;;5017510;28;20556;-62
2024/01/18 09:56:51;;;;;;;30.90;17.08;;;1.40;97.90;;;;;;5017001;28;20093;-62
2024/01/18 09:59:18;;;;;;;31.25;16.15;;;1.40;98.60;;;;;;5013942;28;20037;-61
2024/01/18 10:01:47;;;;;;;31.33;16.90;;;1.40;98.30;;;;;;5008428;28;20032;-61
2024/01/18 10:04:14;;;;;;;33.05;16.33;;;1.40;98.20;;;;;;5011525;28;20030;-62
2024/01/18 10:06:41;;;;;;;34.33;17.10;;;1.40;97.60;;;;;;5013118;28;20032;-61
2024/01/18 10:09:10;;;;;;;34.17;16.13;;;1.40;97.40;;;;;;5012520;28;20481;-61
2024/01/18 10:11:36;;;;;;;33.97;17.70;;;1.50;97.70;;;;;;5013754;28;20018;-61
2024/01/18 10:14:02;;;;;;;33.00;16.40;;;1.60;97.70;;;;;;5016477;28;20018;-61
2024/01/18 10:16:32;;;;;;;34.22;17.48;;;1.70;97.20;;;;;;5020529;28;20052;-61
2024/01/18 10:19:02;;;;;;;38.17;18.38;;;1.70;97.00;;;;;;5020256;28;20064;-61
2024/01/18 10:21:30;;;;;;;33.65;17.70;;;1.70;96.70;;;;;;5016019;28;20032;-61
2024/01/18 10:23:55;;;;;;;28.45;16.33;;;1.70;96.80;;;;;;5020190;28;20493;-62
2024/01/18 10:26:22;;;;;;;32.25;17.60;;;1.60;96.50;;;;;;5020044;28;20061;-61
2024/01/18 10:28:48;;;;;;;35.65;18.33;;;1.60;96.40;;;;;;5022144;28;20448;-61
2024/01/18 10:31:14;;;;;;;33.92;16.38;;;1.60;96.80;;;;;;5013296;28;20486;-61
2024/01/18 10:33:40;;;;;;;36.95;17.90;;;1.60;96.40;;;;;;5018639;28;20401;-61
2024/01/18 10:36:06;;;;;;;31.80;17.63;;;1.50;96.60;;;;;;5019950;28;20018;-61
2024/01/18 10:38:35;;;;;;;32.70;17.95;;;1.50;96.60;;;;;;5020018;28;20347;-61
2024/01/18 10:41:02;;;;;;;39.05;18.77;;;1.40;96.40;;;;;;5020091;28;20028;-61
2024/01/18 10:43:32;;;;;;;37.40;17.67;;;1.30;96.70;;;;;;5019714;28;20077;-61
2024/01/18 10:45:58;;;;;;;26.70;15.68;;;1.30;97.20;;;;;;5019837;28;20017;-61
2024/01/18 10:48:25;;;;;;;30.15;15.90;;;1.30;96.80;;;;;;5020344;28;20049;-61
2024/01/18 10:50:53;;;;;;;35.25;16.98;;;1.20;96.70;;;;;;5017629;28;20087;-61
2024/01/18 10:53:20;;;;;;;40.22;19.25;;;1.30;96.50;;;;;;5021237;28;20021;-61
2024/01/18 10:55:46;;;;;;;31.17;16.42;;;1.30;96.80;;;;;;5019507;28;20393;-61
2024/01/18 10:58:11;;;;;;;33.15;17.52;;;1.40;96.60;;;;;;5019535;28;20017;-61
2024/01/18 11:00:37;;;;;;;32.92;16.42;;;1.40;96.60;;;;;;5019505;28;20073;-61
2024/01/18 11:03:03;;;;;;;35.08;18.05;;;1.30;95.70;;;;;;5005058;28;20014;-61
2024/01/18 11:05:30;;;;;;;35.97;17.80;;;1.30;95.90;;;;;;5019454;28;20512;-61
2024/01/18 11:07:56;;;;;;;36.92;18.00;;;1.40;95.70;;;;;;5019587;28;20108;-60
2024/01/18 11:10:23;;;;;;;35.90;17.48;;;1.30;95.90;;;;;;5021464;28;20102;-61
2024/01/18 11:12:49;;;;;;;34.17;17.25;;;1.30;95.80;;;;;;5019486;28;20404;-61
2024/01/18 11:15:16;;;;;;;30.55;16.55;;;1.30;95.90;;;;;;5019432;28;20030;-61
2024/01/18 11:17:51;;;;;;;30.58;16.90;;;1.20;95.80;;;;;;5018838;28;20352;-61
2024/01/18 11:20:17;;;;;;;24.52;12.50;;;1.20;95.90;;;;;;5019384;28;20025;-61
2024/01/18 11:22:43;;;;;;;29.60;15.05;;;1.10;95.90;;;;;;5019343;28;20404;-61
2024/01/18 11:25:26;;;;;;;33.95;15.80;;;1.10;95.90;;;;;;5015069;28;20033;-61
2024/01/18 11:27:52;;;;;;;31.92;16.20;;;1.10;96.20;;;;;;5013468;28;20021;-61
2024/01/18 11:30:35;;;;;;;35.05;17.13;;;1.10;96.40;;;;;;5019347;28;20033;-61
2024/01/18 11:33:01;;;;;;;35.20;16.23;;;1.00;96.50;;;;;;5019133;28;20025;-61
2024/01/18 11:35:27;;;;;;;33.67;17.50;;;1.00;96.50;;;;;;5010949;28;20029;-61
2024/01/18 11:38:16;;;;;;;31.30;16.92;;;1.10;96.50;;;;;;5016874;28;20026;-61
2024/01/18 11:40:42;;;;;;;36.15;17.88;;;1.10;96.50;;;;;;5013993;28;20034;-61
2024/01/18 11:43:08;;;;;;;37.20;18.90;;;1.20;96.50;;;;;;5010769;28;20037;-61
2024/01/18 11:45:34;;;;;;;34.00;17.92;;;1.30;96.40;;;;;;5014915;28;20033;-61
2024/01/18 11:47:59;;;;;;;32.83;18.10;;;1.40;96.30;;;;;;5018908;28;20052;-60
2024/01/18 11:50:25;;;;;;;33.40;16.55;;;1.40;96.00;;;;;;5020864;28;20160;-61
2024/01/18 11:52:51;;;;;;;35.47;17.85;;;1.50;96.30;;;;;;5019220;28;20040;-61
2024/01/18 11:55:17;;;;;;;33.67;17.42;;;1.60;96.30;;;;;;5018827;28;20048;-61
2024/01/18 11:57:43;;;;;;;33.65;17.88;;;1.60;96.40;;;;;;5019170;28;20026;-62
2024/01/18 12:00:13;;;;;;;36.72;17.73;;;1.60;95.80;;;;;;5018795;28;20048;-61
2024/01/18 12:02:39;;;;;;;32.03;17.65;;;1.50;95.80;;;;;;5012855;28;20033;-61
2024/01/18 12:05:07;;;;;;;36.67;18.70;;;1.60;95.80;;;;;;5018757;28;20501;-61
2024/01/18 12:07:33;;;;;;;33.95;17.73;;;1.60;96.10;;;;;;5020729;28;20096;-61
2024/01/18 12:09:59;;;;;;;33.05;17.63;;;1.60;95.70;;;;;;5018693;28;20108;-61
2024/01/18 12:12:25;;;;;;;30.08;16.02;;;1.60;95.70;;;;;;5018794;28;20057;-62
2024/01/18 12:14:50;;;;;;;29.67;17.73;;;1.70;95.70;;;;;;5018696;28;20045;-61
2024/01/18 12:17:16;;;;;;;41.28;20.38;;;1.70;95.70;;;;;;5018597;28;20042;-61
2024/01/18 12:19:44;;;;;;;34.58;17.52;;;1.70;95.70;;;;;;5018702;28;20476;-61
2024/01/18 12:22:11;;;;;;;32.08;17.67;;;1.60;95.60;;;;;;5018748;28;20025;-60
2024/01/18 12:24:39;;;;;;;35.13;16.95;;;1.50;95.70;;;;;;5020540;28;20030;-61